sensor_id;sensor_type;location;lat;lon;timestamp;pressure;altitude;pressure_sealevel;temperature;humidity
74372;BME280;62885;51.374;6.170;2023-04-21T00:01:55;101136.19;;;7.06;100.00
74372;BME280;62885;51.374;6.170;2023-04-21T00:04:20;101134.25;;;7.09;100.00
74372;BME280;62885;51.374;6.170;2023-04-21T00:06:46;101131.19;;;6.99;100.00
74372;BME280;62885;51.374;6.170;2023-04-21T00:09:11;101134.03;;;6.96;100.00
74372;BME280;62885;51.374;6.170;2023-04-21T00:11:36;101137.16;;;7.05;100.00
74372;BME280;62885;51.374;6.170;2023-04-21T00:14:02;101134.50;;;7.05;100.00
74372;BME280;62885;51.374;6.170;2023-04-21T00:16:27;101133.03;;;7.15;100.00
74372;BME280;62885;51.374;6.170;2023-04-21T00:18:53;101132.84;;;7.02;100.00
74372;BME280;62885;51.374;6.170;2023-04-21T00:21:18;101130.97;;;7.04;100.00
74372;BME280;62885;51.374;6.170;2023-04-21T00:23:43;101149.75;;;7.01;100.00
74372;BME280;62885;51.374;6.170;2023-04-21T00:26:09;101151.75;;;6.97;100.00
74372;BME280;62885;51.374;6.170;2023-04-21T00:28:34;101138.84;;;6.90;100.00
74372;BME280;62885;51.374;6.170;2023-04-21T00:30:59;101141.97;;;6.98;100.00
74372;BME280;62885;51.374;6.170;2023-04-21T00:33:25;101127.69;;;6.99;100.00
74372;BME280;62885;51.374;6.170;2023-04-21T00:35:50;101129.41;;;7.00;100.00
74372;BME280;62885;51.374;6.170;2023-04-21T00:38:18;101127.00;;;6.95;100.00
74372;BME280;62885;51.374;6.170;2023-04-21T00:40:44;101123.72;;;6.90;100.00
74372;BME280;62885;51.374;6.170;2023-04-21T00:43:09;101118.06;;;6.96;100.00
74372;BME280;62885;51.374;6.170;2023-04-21T00:45:34;101116.53;;;6.92;100.00
74372;BME280;62885;51.374;6.170;2023-04-21T00:48:00;101116.28;;;6.97;100.00
74372;BME280;62885;51.374;6.170;2023-04-21T00:50:25;101107.50;;;6.95;100.00
74372;BME280;62885;51.374;6.170;2023-04-21T00:52:51;101110.88;;;6.98;100.00
74372;BME280;62885;51.374;6.170;2023-04-21T00:55:16;101108.09;;;7.00;100.00
74372;BME280;62885;51.374;6.170;2023-04-21T00:57:42;101104.34;;;7.04;100.00
74372;BME280;62885;51.374;6.170;2023-04-21T01:00:08;101116.88;;;7.02;100.00
74372;BME280;62885;51.374;6.170;2023-04-21T01:02:35;101115.88;;;7.05;100.00
74372;BME280;62885;51.374;6.170;2023-04-21T01:05:04;101103.81;;;6.97;100.00
74372;BME280;62885;51.374;6.170;2023-04-21T01:07:31;101105.44;;;7.00;100.00
74372;BME280;62885;51.374;6.170;2023-04-21T01:09:56;101098.16;;;7.04;100.00
74372;BME280;62885;51.374;6.170;2023-04-21T01:12:22;101091.72;;;7.08;100.00
74372;BME280;62885;51.374;6.170;2023-04-21T01:14:47;101085.88;;;7.01;100.00
74372;BME280;62885;51.374;6.170;2023-04-21T01:17:13;101093.19;;;6.97;100.00
74372;BME280;62885;51.374;6.170;2023-04-21T01:19:41;101088.72;;;6.98;100.00
74372;BME280;62885;51.374;6.170;2023-04-21T01:22:10;101082.59;;;6.96;100.00
74372;BME280;62885;51.374;6.170;2023-04-21T01:24:38;101080.88;;;6.95;100.00
74372;BME280;62885;51.374;6.170;2023-04-21T01:27:10;101084.41;;;6.95;100.00
74372;BME280;62885;51.374;6.170;2023-04-21T01:29:37;101076.75;;;7.05;100.00
74372;BME280;62885;51.374;6.170;2023-04-21T01:32:11;101078.94;;;6.98;100.00
74372;BME280;62885;51.374;6.170;2023-04-21T01:34:38;101075.06;;;7.04;100.00
74372;BME280;62885;51.374;6.170;2023-04-21T01:37:06;101071.88;;;6.97;100.00
74372;BME280;62885;51.374;6.170;2023-04-21T01:39:32;101073.50;;;7.00;100.00
74372;BME280;62885;51.374;6.170;2023-04-21T01:41:58;101073.50;;;7.00;100.00
74372;BME280;62885;51.374;6.170;2023-04-21T01:44:24;101076.00;;;7.03;100.00
74372;BME280;62885;51.374;6.170;2023-04-21T01:46:50;101069.22;;;6.97;100.00
74372;BME280;62885;51.374;6.170;2023-04-21T01:49:16;101070.84;;;7.00;100.00
74372;BME280;62885;51.374;6.170;2023-04-21T01:51:41;101067.31;;;6.99;100.00
74372;BME280;62885;51.374;6.170;2023-04-21T01:54:06;101058.91;;;7.07;100.00
74372;BME280;62885;51.374;6.170;2023-04-21T01:56:32;101068.97;;;7.02;100.00
74372;BME280;62885;51.374;6.170;2023-04-21T01:58:57;101054.72;;;7.03;100.00
74372;BME280;62885;51.374;6.170;2023-04-21T02:01:22;101050.94;;;7.07;100.00
74372;BME280;62885;51.374;6.170;2023-04-21T02:03:48;101053.13;;;6.99;100.00
74372;BME280;62885;51.374;6.170;2023-04-21T02:06:13;101055.72;;;7.00;100.00
74372;BME280;62885;51.374;6.170;2023-04-21T02:08:39;101058.25;;;7.04;100.00
74372;BME280;62885;51.374;6.170;2023-04-21T02:11:04;101056.44;;;7.04;100.00
74372;BME280;62885;51.374;6.170;2023-04-21T02:13:29;101059.09;;;7.04;100.00
74372;BME280;62885;51.374;6.170;2023-04-21T02:15:55;101060.19;;;7.00;100.00
74372;BME280;62885;51.374;6.170;2023-04-21T02:18:20;101055.56;;;7.04;100.00
74372;BME280;62885;51.374;6.170;2023-04-21T02:20:46;101051.78;;;7.08;100.00
74372;BME280;62885;51.374;6.170;2023-04-21T02:23:11;101052.91;;;7.04;100.00
74372;BME280;62885;51.374;6.170;2023-04-21T02:25:36;101051.00;;;7.06;100.00
74372;BME280;62885;51.374;6.170;2023-04-21T02:28:02;101050.31;;;7.02;100.00
74372;BME280;62885;51.374;6.170;2023-04-21T02:30:27;101052.81;;;7.05;100.00
74372;BME280;62885;51.374;6.170;2023-04-21T02:32:53;101054.38;;;7.09;100.00
74372;BME280;62885;51.374;6.170;2023-04-21T02:35:18;101056.91;;;7.11;100.00
74372;BME280;62885;51.374;6.170;2023-04-21T02:37:43;101050.66;;;7.12;100.00
74372;BME280;62885;51.374;6.170;2023-04-21T02:40:09;101045.44;;;7.10;100.00
74372;BME280;62885;51.374;6.170;2023-04-21T02:42:34;101046.47;;;7.08;100.00
74372;BME280;62885;51.374;6.170;2023-04-21T02:45:00;101041.72;;;7.13;100.00
74372;BME280;62885;51.374;6.170;2023-04-21T02:47:25;101050.66;;;7.12;100.00
74372;BME280;62885;51.374;6.170;2023-04-21T02:49:53;101040.78;;;7.14;100.00
74372;BME280;62885;51.374;6.170;2023-04-21T02:52:18;101050.25;;;7.19;100.00
74372;BME280;62885;51.374;6.170;2023-04-21T02:54:44;101043.97;;;7.20;100.00
74372;BME280;62885;51.374;6.170;2023-04-21T02:57:09;101043.09;;;7.20;100.00
74372;BME280;62885;51.374;6.170;2023-04-21T02:59:35;101038.72;;;7.19;100.00
74372;BME280;62885;51.374;6.170;2023-04-21T03:02:00;101039.50;;;7.21;100.00
74372;BME280;62885;51.374;6.170;2023-04-21T03:04:25;101041.22;;;7.22;100.00
74372;BME280;62885;51.374;6.170;2023-04-21T03:06:51;101038.66;;;7.20;100.00
74372;BME280;62885;51.374;6.170;2023-04-21T03:09:17;101035.97;;;7.20;100.00
74372;BME280;62885;51.374;6.170;2023-04-21T03:11:42;101032.53;;;7.18;100.00
74372;BME280;62885;51.374;6.170;2023-04-21T03:14:08;101032.53;;;7.18;100.00
74372;BME280;62885;51.374;6.170;2023-04-21T03:16:33;101031.69;;;7.18;100.00
74372;BME280;62885;51.374;6.170;2023-04-21T03:18:58;101034.34;;;7.18;100.00
74372;BME280;62885;51.374;6.170;2023-04-21T03:21:23;101030.66;;;7.20;100.00
74372;BME280;62885;51.374;6.170;2023-04-21T03:23:49;101038.13;;;7.14;100.00
74372;BME280;62885;51.374;6.170;2023-04-21T03:26:14;101041.91;;;7.10;100.00
74372;BME280;62885;51.374;6.170;2023-04-21T03:28:40;101029.72;;;7.06;100.00
74372;BME280;62885;51.374;6.170;2023-04-21T03:31:06;101029.81;;;7.04;100.00
74372;BME280;62885;51.374;6.170;2023-04-21T03:33:31;101029.03;;;7.02;100.00
74372;BME280;62885;51.374;6.170;2023-04-21T03:35:56;101026.09;;;7.07;100.00
74372;BME280;62885;51.374;6.170;2023-04-21T03:38:21;101020.97;;;7.04;100.00
74372;BME280;62885;51.374;6.170;2023-04-21T03:40:47;101025.69;;;6.98;100.00
74372;BME280;62885;51.374;6.170;2023-04-21T03:43:12;101020.78;;;6.91;100.00
74372;BME280;62885;51.374;6.170;2023-04-21T03:45:38;101023.59;;;6.88;100.00
74372;BME280;62885;51.374;6.170;2023-04-21T03:48:03;101024.31;;;6.91;100.00
74372;BME280;62885;51.374;6.170;2023-04-21T03:50:29;101022.31;;;6.95;100.00
74372;BME280;62885;51.374;6.170;2023-04-21T03:52:54;101023.44;;;6.91;100.00
74372;BME280;62885;51.374;6.170;2023-04-21T03:55:20;101022.75;;;6.87;100.00
74372;BME280;62885;51.374;6.170;2023-04-21T03:57:45;101033.38;;;6.87;100.00
74372;BME280;62885;51.374;6.170;2023-04-21T04:00:11;101036.06;;;6.87;100.00
74372;BME280;62885;51.374;6.170;2023-04-21T04:02:37;101034.25;;;6.88;100.00
74372;BME280;62885;51.374;6.170;2023-04-21T04:05:03;101020.94;;;6.88;100.00
74372;BME280;62885;51.374;6.170;2023-04-21T04:07:34;101028.19;;;6.86;100.00
74372;BME280;62885;51.374;6.170;2023-04-21T04:09:59;101029.78;;;6.88;100.00
74372;BME280;62885;51.374;6.170;2023-04-21T04:12:25;101031.69;;;6.86;100.00
74372;BME280;62885;51.374;6.170;2023-04-21T04:14:50;101030.84;;;6.86;100.00
74372;BME280;62885;51.374;6.170;2023-04-21T04:17:16;101031.69;;;6.86;100.00
74372;BME280;62885;51.374;6.170;2023-04-21T04:19:41;101017.41;;;6.87;100.00
74372;BME280;62885;51.374;6.170;2023-04-21T04:22:07;101019.41;;;6.84;100.00
74372;BME280;62885;51.374;6.170;2023-04-21T04:24:32;101030.72;;;6.87;100.00
74372;BME280;62885;51.374;6.170;2023-04-21T04:26:58;101038.81;;;6.86;100.00
74372;BME280;62885;51.374;6.170;2023-04-21T04:29:24;101029.91;;;6.87;100.00
74372;BME280;62885;51.374;6.170;2023-04-21T04:31:50;101035.13;;;6.88;100.00
74372;BME280;62885;51.374;6.170;2023-04-21T04:34:16;101028.78;;;6.91;100.00
74372;BME280;62885;51.374;6.170;2023-04-21T04:36:44;101028.06;;;6.87;100.00
74372;BME280;62885;51.374;6.170;2023-04-21T04:39:09;101028.00;;;6.89;100.00
74372;BME280;62885;51.374;6.170;2023-04-21T04:41:36;101021.81;;;6.88;100.00
74372;BME280;62885;51.374;6.170;2023-04-21T04:44:02;101030.84;;;6.86;100.00
74372;BME280;62885;51.374;6.170;2023-04-21T04:46:30;101024.56;;;6.87;100.00
74372;BME280;62885;51.374;6.170;2023-04-21T04:48:55;101033.31;;;6.89;100.00
74372;BME280;62885;51.374;6.170;2023-04-21T04:51:20;101027.06;;;6.90;100.00
74372;BME280;62885;51.374;6.170;2023-04-21T04:53:47;101023.28;;;6.94;100.00
74372;BME280;62885;51.374;6.170;2023-04-21T04:56:12;101034.69;;;6.96;100.00
74372;BME280;62885;51.374;6.170;2023-04-21T04:58:38;101036.50;;;6.95;100.00
74372;BME280;62885;51.374;6.170;2023-04-21T05:01:13;101029.19;;;6.99;100.00
74372;BME280;62885;51.374;6.170;2023-04-21T05:03:40;101037.88;;;7.03;100.00
74372;BME280;62885;51.374;6.170;2023-04-21T05:06:05;101037.69;;;7.06;100.00
74372;BME280;62885;51.374;6.170;2023-04-21T05:08:31;101028.97;;;7.04;100.00
74372;BME280;62885;51.374;6.170;2023-04-21T05:10:56;101044.75;;;7.07;100.00
74372;BME280;62885;51.374;6.170;2023-04-21T05:13:21;101036.75;;;7.07;100.00
74372;BME280;62885;51.374;6.170;2023-04-21T05:15:47;101051.44;;;7.14;100.00
74372;BME280;62885;51.374;6.170;2023-04-21T05:18:12;101042.53;;;7.15;100.00
74372;BME280;62885;51.374;6.170;2023-04-21T05:20:41;101051.53;;;7.28;100.00
74372;BME280;62885;51.374;6.170;2023-04-21T05:23:06;101049.38;;;7.64;100.00
74372;BME280;62885;51.374;6.170;2023-04-21T05:25:32;101048.00;;;7.73;100.00
74372;BME280;62885;51.374;6.170;2023-04-21T05:27:57;101044.34;;;8.04;100.00
74372;BME280;62885;51.374;6.170;2023-04-21T05:30:22;101046.06;;;8.05;100.00
74372;BME280;62885;51.374;6.170;2023-04-21T05:32:48;101046.72;;;7.80;100.00
74372;BME280;62885;51.374;6.170;2023-04-21T05:35:13;101052.84;;;7.66;100.00
74372;BME280;62885;51.374;6.170;2023-04-21T05:37:39;101047.78;;;7.62;100.00
74372;BME280;62885;51.374;6.170;2023-04-21T05:40:05;101055.41;;;7.68;100.00
74372;BME280;62885;51.374;6.170;2023-04-21T05:42:33;101050.69;;;7.57;100.00
74372;BME280;62885;51.374;6.170;2023-04-21T05:44:58;101054.63;;;7.66;100.00
74372;BME280;62885;51.374;6.170;2023-04-21T05:47:23;101049.25;;;7.52;100.00
74372;BME280;62885;51.374;6.170;2023-04-21T05:49:52;101052.06;;;7.64;100.00
74372;BME280;62885;51.374;6.170;2023-04-21T05:52:21;101051.91;;;7.52;100.00
74372;BME280;62885;51.374;6.170;2023-04-21T05:54:46;101059.09;;;7.65;100.00
74372;BME280;62885;51.374;6.170;2023-04-21T05:57:12;101044.84;;;7.66;100.00
74372;BME280;62885;51.374;6.170;2023-04-21T05:59:37;101051.34;;;7.76;100.00
74372;BME280;62885;51.374;6.170;2023-04-21T06:02:03;101059.19;;;7.94;100.00
74372;BME280;62885;51.374;6.170;2023-04-21T06:04:28;101056.88;;;8.17;100.00
74372;BME280;62885;51.374;6.170;2023-04-21T06:06:54;101051.97;;;8.40;100.00
74372;BME280;62885;51.374;6.170;2023-04-21T06:09:19;101053.50;;;8.58;100.00
74372;BME280;62885;51.374;6.170;2023-04-21T06:11:44;101056.28;;;8.71;100.00
74372;BME280;62885;51.374;6.170;2023-04-21T06:14:10;101045.00;;;8.80;100.00
74372;BME280;62885;51.374;6.170;2023-04-21T06:16:35;101054.59;;;9.11;100.00
74372;BME280;62885;51.374;6.170;2023-04-21T06:19:00;101060.53;;;9.42;96.38
74372;BME280;62885;51.374;6.170;2023-04-21T06:21:26;101056.50;;;10.41;91.62
74372;BME280;62885;51.374;6.170;2023-04-21T06:23:51;101046.41;;;10.19;89.86
74372;BME280;62885;51.374;6.170;2023-04-21T06:26:17;101061.78;;;9.64;93.52
74372;BME280;62885;51.374;6.170;2023-04-21T06:28:42;101057.88;;;9.55;94.98
74372;BME280;62885;51.374;6.170;2023-04-21T06:31:08;101053.09;;;9.33;96.10
74372;BME280;62885;51.374;6.170;2023-04-21T06:33:39;101058.59;;;9.44;96.79
74372;BME280;62885;51.374;6.170;2023-04-21T06:36:04;101062.03;;;9.46;95.92
74372;BME280;62885;51.374;6.170;2023-04-21T06:38:30;101060.53;;;9.42;96.72
74372;BME280;62885;51.374;6.170;2023-04-21T06:40:56;101058.19;;;9.51;96.66
74372;BME280;62885;51.374;6.170;2023-04-21T06:43:21;101060.50;;;9.69;96.16
74372;BME280;62885;51.374;6.170;2023-04-21T06:45:49;101060.69;;;9.54;95.90
74372;BME280;62885;51.374;6.170;2023-04-21T06:48:14;101054.06;;;9.59;95.09
74372;BME280;62885;51.374;6.170;2023-04-21T06:50:40;101055.88;;;9.59;95.46
74372;BME280;62885;51.374;6.170;2023-04-21T06:53:09;101050.59;;;10.49;91.80
74372;BME280;62885;51.374;6.170;2023-04-21T06:55:35;101057.50;;;10.89;86.56
74372;BME280;62885;51.374;6.170;2023-04-21T06:58:00;101065.53;;;10.01;90.78
74372;BME280;62885;51.374;6.170;2023-04-21T07:00:26;101061.13;;;9.33;95.07
74372;BME280;62885;51.374;6.170;2023-04-21T07:02:51;101060.16;;;9.34;95.66
74372;BME280;62885;51.374;6.170;2023-04-21T07:05:16;101057.63;;;9.19;96.38
74372;BME280;62885;51.374;6.170;2023-04-21T07:07:42;101061.16;;;9.19;96.43
74372;BME280;62885;51.374;6.170;2023-04-21T07:10:07;101051.78;;;9.26;96.05
74372;BME280;62885;51.374;6.170;2023-04-21T07:12:33;101048.38;;;9.24;95.73
74372;BME280;62885;51.374;6.170;2023-04-21T07:14:58;101036.59;;;9.27;96.35
74372;BME280;62885;51.374;6.170;2023-04-21T07:17:23;101032.72;;;9.45;96.21
74372;BME280;62885;51.374;6.170;2023-04-21T07:19:49;101032.69;;;9.59;94.93
74372;BME280;62885;51.374;6.170;2023-04-21T07:22:14;101035.94;;;9.50;94.12
74372;BME280;62885;51.374;6.170;2023-04-21T07:24:40;101045.97;;;9.61;94.45
74372;BME280;62885;51.374;6.170;2023-04-21T07:27:05;101054.78;;;9.48;92.21
74372;BME280;62885;51.374;6.170;2023-04-21T07:29:30;101047.72;;;9.47;93.24
74372;BME280;62885;51.374;6.170;2023-04-21T07:31:56;101035.25;;;9.34;92.01
74372;BME280;62885;51.374;6.170;2023-04-21T07:34:22;101040.88;;;9.56;91.88
74372;BME280;62885;51.374;6.170;2023-04-21T07:36:49;101054.78;;;9.48;91.40
74372;BME280;62885;51.374;6.170;2023-04-21T07:39:15;101041.97;;;9.54;91.68
74372;BME280;62885;51.374;6.170;2023-04-21T07:41:40;101037.56;;;9.53;91.60
74372;BME280;62885;51.374;6.170;2023-04-21T07:44:05;101044.88;;;9.63;91.48
74372;BME280;62885;51.374;6.170;2023-04-21T07:46:31;101049.22;;;9.52;90.92
74372;BME280;62885;51.374;6.170;2023-04-21T07:48:57;101045.50;;;9.67;91.28
74372;BME280;62885;51.374;6.170;2023-04-21T07:51:24;101047.03;;;9.71;90.26
74372;BME280;62885;51.374;6.170;2023-04-21T07:53:49;101051.09;;;9.64;90.41
74372;BME280;62885;51.374;6.170;2023-04-21T07:56:15;101050.88;;;9.67;90.86
74372;BME280;62885;51.374;6.170;2023-04-21T07:58:41;101049.13;;;9.93;90.42
74372;BME280;62885;51.374;6.170;2023-04-21T08:01:06;101047.25;;;10.20;90.58
74372;BME280;62885;51.374;6.170;2023-04-21T08:03:32;101050.72;;;10.35;89.35
74372;BME280;62885;51.374;6.170;2023-04-21T08:05:57;101050.63;;;9.97;88.50
74372;BME280;62885;51.374;6.170;2023-04-21T08:08:22;101046.69;;;10.15;88.53
74372;BME280;62885;51.374;6.170;2023-04-21T08:10:48;101051.47;;;10.37;89.16
74372;BME280;62885;51.374;6.170;2023-04-21T08:13:13;101044.25;;;10.12;87.98
74372;BME280;62885;51.374;6.170;2023-04-21T08:15:38;101036.66;;;10.31;87.43
74372;BME280;62885;51.374;6.170;2023-04-21T08:18:04;101030.34;;;10.45;87.62
74372;BME280;62885;51.374;6.170;2023-04-21T08:20:29;101036.25;;;10.50;87.74
74372;BME280;62885;51.374;6.170;2023-04-21T08:22:55;101027.56;;;10.59;87.18
74372;BME280;62885;51.374;6.170;2023-04-21T08:25:20;101045.97;;;10.63;86.81
74372;BME280;62885;51.374;6.170;2023-04-21T08:27:46;101050.91;;;10.82;86.24
74372;BME280;62885;51.374;6.170;2023-04-21T08:30:12;101045.19;;;10.87;86.64
74372;BME280;62885;51.374;6.170;2023-04-21T08:32:37;101045.69;;;11.04;86.33
74372;BME280;62885;51.374;6.170;2023-04-21T08:35:03;101045.78;;;11.16;86.26
74372;BME280;62885;51.374;6.170;2023-04-21T08:37:28;101039.75;;;10.88;85.44
74372;BME280;62885;51.374;6.170;2023-04-21T08:39:53;101039.66;;;10.77;86.00
74372;BME280;62885;51.374;6.170;2023-04-21T08:42:19;101037.06;;;10.88;86.60
74372;BME280;62885;51.374;6.170;2023-04-21T08:44:45;101037.13;;;10.99;86.70
74372;BME280;62885;51.374;6.170;2023-04-21T08:47:12;101038.19;;;11.09;86.60
74372;BME280;62885;51.374;6.170;2023-04-21T08:49:39;101040.72;;;10.75;86.52
74372;BME280;62885;51.374;6.170;2023-04-21T08:52:05;101035.47;;;10.73;87.77
74372;BME280;62885;51.374;6.170;2023-04-21T08:54:31;101039.25;;;10.70;87.22
74372;BME280;62885;51.374;6.170;2023-04-21T08:56:57;101040.72;;;10.75;86.96
74372;BME280;62885;51.374;6.170;2023-04-21T08:59:22;101036.75;;;10.67;86.05
74372;BME280;62885;51.374;6.170;2023-04-21T09:02:07;101030.63;;;10.78;86.63
74372;BME280;62885;51.374;6.170;2023-04-21T09:04:34;101036.53;;;10.83;86.45
74372;BME280;62885;51.374;6.170;2023-04-21T09:06:59;101032.78;;;10.86;86.28
74372;BME280;62885;51.374;6.170;2023-04-21T09:09:25;101035.97;;;10.91;86.42
74372;BME280;62885;51.374;6.170;2023-04-21T09:11:55;101043.56;;;10.97;86.02
74372;BME280;62885;51.374;6.170;2023-04-21T09:14:21;101043.28;;;11.12;85.54
74372;BME280;62885;51.374;6.170;2023-04-21T09:16:58;101040.44;;;11.03;85.30
74372;BME280;62885;51.374;6.170;2023-04-21T09:19:26;101049.59;;;11.24;85.30
74372;BME280;62885;51.374;6.170;2023-04-21T09:21:52;101041.94;;;11.31;84.88
74372;BME280;62885;51.374;6.170;2023-04-21T09:24:17;101045.91;;;11.38;85.03
74372;BME280;62885;51.374;6.170;2023-04-21T09:26:49;101045.47;;;11.07;85.31
74372;BME280;62885;51.374;6.170;2023-04-21T09:29:15;101045.09;;;11.25;84.79
74372;BME280;62885;51.374;6.170;2023-04-21T09:31:43;101042.09;;;11.29;85.65
74372;BME280;62885;51.374;6.170;2023-04-21T09:34:22;101040.63;;;11.36;85.82
74372;BME280;62885;51.374;6.170;2023-04-21T09:36:58;101036.19;;;11.48;84.82
74372;BME280;62885;51.374;6.170;2023-04-21T09:39:23;101032.84;;;11.57;84.17
74372;BME280;62885;51.374;6.170;2023-04-21T09:41:49;101043.19;;;11.74;83.93
74372;BME280;62885;51.374;6.170;2023-04-21T09:44:14;101027.47;;;11.57;83.80
74372;BME280;62885;51.374;6.170;2023-04-21T09:46:42;101025.91;;;11.89;82.74
74372;BME280;62885;51.374;6.170;2023-04-21T09:49:08;101030.34;;;12.02;82.09
74372;BME280;62885;51.374;6.170;2023-04-21T09:51:35;101029.06;;;12.29;82.00
74372;BME280;62885;51.374;6.170;2023-04-21T09:54:12;101027.59;;;12.37;81.34
74372;BME280;62885;51.374;6.170;2023-04-21T09:56:40;101019.31;;;12.84;80.04
74372;BME280;62885;51.374;6.170;2023-04-21T09:59:07;101024.56;;;12.52;80.07
74372;BME280;62885;51.374;6.170;2023-04-21T10:01:37;101019.81;;;12.33;79.38
74372;BME280;62885;51.374;6.170;2023-04-21T10:04:03;101024.59;;;12.63;79.88
74372;BME280;62885;51.374;6.170;2023-04-21T10:06:29;101023.22;;;13.02;78.13
74372;BME280;62885;51.374;6.170;2023-04-21T10:08:56;101026.16;;;12.66;77.94
74372;BME280;62885;51.374;6.170;2023-04-21T10:11:22;101015.28;;;12.79;78.01
74372;BME280;62885;51.374;6.170;2023-04-21T10:13:48;101024.56;;;13.19;76.57
74372;BME280;62885;51.374;6.170;2023-04-21T10:16:16;101021.09;;;13.28;76.21
74372;BME280;62885;51.374;6.170;2023-04-21T10:18:43;101010.84;;;13.65;74.97
74372;BME280;62885;51.374;6.170;2023-04-21T10:21:11;101011.09;;;13.30;74.78
74372;BME280;62885;51.374;6.170;2023-04-21T10:23:52;101011.03;;;13.41;74.64
74372;BME280;62885;51.374;6.170;2023-04-21T10:26:25;101004.91;;;13.50;75.21
74372;BME280;62885;51.374;6.170;2023-04-21T10:28:55;101002.63;;;13.35;74.41
74372;BME280;62885;51.374;6.170;2023-04-21T10:31:30;101001.22;;;13.20;73.52
74372;BME280;62885;51.374;6.170;2023-04-21T10:39:32;100990.38;;;13.42;74.60
74372;BME280;62885;51.374;6.170;2023-04-21T10:45:05;100978.56;;;13.22;74.08
74372;BME280;62885;51.374;6.170;2023-04-21T10:47:38;100974.13;;;13.43;74.01
74372;BME280;62885;51.374;6.170;2023-04-21T10:50:28;100964.94;;;13.46;73.69
74372;BME280;62885;51.374;6.170;2023-04-21T10:55:28;100953.34;;;13.87;70.15
74372;BME280;62885;51.374;6.170;2023-04-21T10:57:54;100951.38;;;13.89;70.59
74372;BME280;62885;51.374;6.170;2023-04-21T11:00:22;100939.72;;;13.79;69.98
74372;BME280;62885;51.374;6.170;2023-04-21T11:02:59;100934.97;;;14.22;70.26
74372;BME280;62885;51.374;6.170;2023-04-21T11:05:43;100946.53;;;14.34;69.95
74372;BME280;62885;51.374;6.170;2023-04-21T11:08:13;100940.22;;;13.93;68.69
74372;BME280;62885;51.374;6.170;2023-04-21T11:10:53;100937.88;;;13.79;69.51
74372;BME280;62885;51.374;6.170;2023-04-21T11:13:23;100930.16;;;13.75;69.21
74372;BME280;62885;51.374;6.170;2023-04-21T11:21:09;100920.97;;;14.28;67.65
74372;BME280;62885;51.374;6.170;2023-04-21T11:23:39;100909.66;;;14.34;67.50
74372;BME280;62885;51.374;6.170;2023-04-21T11:26:07;100921.06;;;14.78;66.66
74372;BME280;62885;51.374;6.170;2023-04-21T11:28:33;100906.78;;;14.57;65.92
74372;BME280;62885;51.374;6.170;2023-04-21T11:30:58;100898.91;;;14.34;65.48
74372;BME280;62885;51.374;6.170;2023-04-21T11:33:23;100887.69;;;14.69;65.75
74372;BME280;62885;51.374;6.170;2023-04-21T11:35:49;100892.69;;;14.93;64.74
74372;BME280;62885;51.374;6.170;2023-04-21T11:38:15;100886.47;;;15.02;65.00
74372;BME280;62885;51.374;6.170;2023-04-21T11:40:48;100878.50;;;15.20;64.40
74372;BME280;62885;51.374;6.170;2023-04-21T11:43:15;100876.84;;;15.19;63.89
74372;BME280;62885;51.374;6.170;2023-04-21T11:45:41;100886.75;;;15.09;65.10
74372;BME280;62885;51.374;6.170;2023-04-21T11:48:16;100879.91;;;14.76;65.29
74372;BME280;62885;51.374;6.170;2023-04-21T11:50:48;100881.31;;;14.80;65.31
74372;BME280;62885;51.374;6.170;2023-04-21T11:53:14;100874.38;;;14.77;63.95
74372;BME280;62885;51.374;6.170;2023-04-21T11:55:44;100876.06;;;14.69;64.39
74372;BME280;62885;51.374;6.170;2023-04-21T11:58:10;100869.41;;;14.83;64.28
74372;BME280;62885;51.374;6.170;2023-04-21T12:00:36;100864.72;;;14.75;62.74
74372;BME280;62885;51.374;6.170;2023-04-21T12:03:01;100862.63;;;14.78;63.91
74372;BME280;62885;51.374;6.170;2023-04-21T12:05:34;100854.94;;;14.93;63.19
74372;BME280;62885;51.374;6.170;2023-04-21T12:08:00;100852.97;;;15.24;62.91
74372;BME280;62885;51.374;6.170;2023-04-21T12:10:27;100840.91;;;15.18;63.67
74372;BME280;62885;51.374;6.170;2023-04-21T12:12:55;100839.03;;;14.80;63.47
74372;BME280;62885;51.374;6.170;2023-04-21T12:15:21;100837.50;;;14.88;63.08
74372;BME280;62885;51.374;6.170;2023-04-21T12:17:49;100841.59;;;15.40;62.64
74372;BME280;62885;51.374;6.170;2023-04-21T12:20:16;100824.41;;;15.60;61.95
74372;BME280;62885;51.374;6.170;2023-04-21T12:22:42;100829.97;;;15.95;62.21
74372;BME280;62885;51.374;6.170;2023-04-21T12:25:08;100828.22;;;16.04;63.13
74372;BME280;62885;51.374;6.170;2023-04-21T12:27:33;100822.88;;;15.94;63.77
74372;BME280;62885;51.374;6.170;2023-04-21T12:29:59;100813.44;;;15.61;64.88
74372;BME280;62885;51.374;6.170;2023-04-21T12:32:25;100816.19;;;15.23;66.62
74372;BME280;62885;51.374;6.170;2023-04-21T12:34:51;100808.81;;;15.25;67.05
74372;BME280;62885;51.374;6.170;2023-04-21T12:40:38;100815.59;;;15.39;65.85
74372;BME280;62885;51.374;6.170;2023-04-21T12:43:04;100805.22;;;15.44;65.16
74372;BME280;62885;51.374;6.170;2023-04-21T12:45:29;100802.47;;;15.82;64.06
74372;BME280;62885;51.374;6.170;2023-04-21T12:47:56;100807.81;;;15.55;64.81
74372;BME280;62885;51.374;6.170;2023-04-21T12:50:22;100807.50;;;15.58;65.19
74372;BME280;62885;51.374;6.170;2023-04-21T12:52:48;100797.16;;;15.90;65.42
74372;BME280;62885;51.374;6.170;2023-04-21T12:55:16;100799.09;;;15.61;65.06
74372;BME280;62885;51.374;6.170;2023-04-21T12:57:41;100797.94;;;15.73;65.50
74372;BME280;62885;51.374;6.170;2023-04-21T13:00:08;100801.47;;;15.74;66.42
74372;BME280;62885;51.374;6.170;2023-04-21T13:02:36;100801.53;;;15.45;66.50
74372;BME280;62885;51.374;6.170;2023-04-21T13:05:02;100789.78;;;15.27;67.44
74372;BME280;62885;51.374;6.170;2023-04-21T13:07:29;100797.19;;;15.81;67.26